sensor_id;sensor_type;location;lat;lon;timestamp;pressure;altitude;pressure_sealevel;temperature;humidity
12219;BME280;6172;42.646;23.344;2023-02-21T00:01:27;94964.78;;;2.72;100.00
12219;BME280;6172;42.646;23.344;2023-02-21T00:04:11;94954.00;;;2.72;100.00
12219;BME280;6172;42.646;23.344;2023-02-21T00:06:56;94969.16;;;2.61;100.00
12219;BME280;6172;42.646;23.344;2023-02-21T00:09:40;94972.41;;;2.70;100.00
12219;BME280;6172;42.646;23.344;2023-02-21T00:12:25;94968.00;;;2.81;100.00
12219;BME280;6172;42.646;23.344;2023-02-21T00:15:10;94969.13;;;2.58;100.00
12219;BME280;6172;42.646;23.344;2023-02-21T00:17:56;94964.31;;;2.48;100.00
12219;BME280;6172;42.646;23.344;2023-02-21T00:20:40;94960.94;;;2.73;100.00
12219;BME280;6172;42.646;23.344;2023-02-21T00:23:25;94964.34;;;2.93;100.00
12219;BME280;6172;42.646;23.344;2023-02-21T00:26:09;94964.34;;;2.93;100.00
12219;BME280;6172;42.646;23.344;2023-02-21T00:28:53;94968.38;;;3.02;100.00
12219;BME280;6172;42.646;23.344;2023-02-21T00:31:37;94966.94;;;2.86;100.00
12219;BME280;6172;42.646;23.344;2023-02-21T00:34:22;94943.59;;;2.93;100.00
12219;BME280;6172;42.646;23.344;2023-02-21T00:37:07;94936.28;;;2.71;100.00
12219;BME280;6172;42.646;23.344;2023-02-21T00:39:51;94956.50;;;2.84;100.00
12219;BME280;6172;42.646;23.344;2023-02-21T00:42:35;94955.94;;;2.53;100.00
12219;BME280;6172;42.646;23.344;2023-02-21T00:45:19;94947.84;;;2.72;100.00
12219;BME280;6172;42.646;23.344;2023-02-21T00:48:03;94935.47;;;2.48;100.00
12219;BME280;6172;42.646;23.344;2023-02-21T00:50:48;94944.53;;;2.59;100.00
12219;BME280;6172;42.646;23.344;2023-02-21T00:53:33;94939.50;;;2.77;100.00
12219;BME280;6172;42.646;23.344;2023-02-21T00:56:17;94925.47;;;2.90;100.00
12219;BME280;6172;42.646;23.344;2023-02-21T00:59:01;94919.50;;;3.00;100.00
12219;BME280;6172;42.646;23.344;2023-02-21T01:01:45;94915.63;;;2.98;100.00
12219;BME280;6172;42.646;23.344;2023-02-21T01:04:29;94916.41;;;2.98;100.00
12219;BME280;6172;42.646;23.344;2023-02-21T01:07:15;94906.47;;;3.02;100.00
12219;BME280;6172;42.646;23.344;2023-02-21T01:09:59;94904.25;;;2.85;100.00
12219;BME280;6172;42.646;23.344;2023-02-21T01:12:44;94897.31;;;2.84;100.00
12219;BME280;6172;42.646;23.344;2023-02-21T01:15:28;94901.06;;;3.02;100.00
12219;BME280;6172;42.646;23.344;2023-02-21T01:18:12;94898.91;;;3.11;100.00
12219;BME280;6172;42.646;23.344;2023-02-21T01:20:56;94884.81;;;3.21;100.00
12219;BME280;6172;42.646;23.344;2023-02-21T01:23:41;94875.25;;;3.24;100.00
12219;BME280;6172;42.646;23.344;2023-02-21T01:26:25;94892.66;;;3.04;100.00
12219;BME280;6172;42.646;23.344;2023-02-21T01:29:10;94871.72;;;2.94;100.00
12219;BME280;6172;42.646;23.344;2023-02-21T01:31:54;94884.59;;;3.07;100.00
12219;BME280;6172;42.646;23.344;2023-02-21T01:34:38;94882.34;;;3.09;100.00
12219;BME280;6172;42.646;23.344;2023-02-21T01:37:22;94892.31;;;3.09;100.00
12219;BME280;6172;42.646;23.344;2023-02-21T01:40:08;94886.66;;;2.91;100.00
12219;BME280;6172;42.646;23.344;2023-02-21T01:42:57;94878.28;;;2.96;100.00
12219;BME280;6172;42.646;23.344;2023-02-21T01:45:48;94875.66;;;2.77;100.00
12219;BME280;6172;42.646;23.344;2023-02-21T01:48:33;94879.63;;;2.61;100.00
12219;BME280;6172;42.646;23.344;2023-02-21T01:51:20;94872.66;;;2.60;100.00
12219;BME280;6172;42.646;23.344;2023-02-21T01:54:07;94868.63;;;2.69;100.00
12219;BME280;6172;42.646;23.344;2023-02-21T01:56:54;94854.72;;;2.67;100.00
12219;BME280;6172;42.646;23.344;2023-02-21T01:59:39;94863.13;;;2.62;100.00
12219;BME280;6172;42.646;23.344;2023-02-21T02:02:28;94853.53;;;2.42;100.00
12219;BME280;6172;42.646;23.344;2023-02-21T02:05:15;94857.69;;;2.40;100.00
12219;BME280;6172;42.646;23.344;2023-02-21T02:08:00;94844.38;;;2.47;100.00
12219;BME280;6172;42.646;23.344;2023-02-21T02:10:45;94847.44;;;2.68;100.00
12219;BME280;6172;42.646;23.344;2023-02-21T02:13:45;94847.47;;;2.94;100.00
12219;BME280;6172;42.646;23.344;2023-02-21T02:16:25;94847.47;;;2.71;100.00
12219;BME280;6172;42.646;23.344;2023-02-21T02:19:02;94843.56;;;2.91;100.00
12219;BME280;6172;42.646;23.344;2023-02-21T02:24:42;94837.75;;;3.12;100.00
12219;BME280;6172;42.646;23.344;2023-02-21T02:35:56;94819.72;;;2.64;100.00
12219;BME280;6172;42.646;23.344;2023-02-21T02:38:30;94829.25;;;2.61;100.00
12219;BME280;6172;42.646;23.344;2023-02-21T02:41:01;94824.59;;;2.58;100.00
12219;BME280;6172;42.646;23.344;2023-02-21T02:43:32;94837.63;;;2.56;100.00
12219;BME280;6172;42.646;23.344;2023-02-21T02:46:04;94835.84;;;2.64;100.00
12219;BME280;6172;42.646;23.344;2023-02-21T02:48:37;94819.53;;;2.53;100.00
12219;BME280;6172;42.646;23.344;2023-02-21T02:51:12;94824.72;;;2.43;100.00
12219;BME280;6172;42.646;23.344;2023-02-21T02:53:40;94823.22;;;2.45;100.00
12219;BME280;6172;42.646;23.344;2023-02-21T02:56:09;94824.22;;;2.60;100.00
12219;BME280;6172;42.646;23.344;2023-02-21T02:58:40;94830.56;;;2.48;100.00
12219;BME280;6172;42.646;23.344;2023-02-21T03:01:21;94829.25;;;2.61;100.00
12219;BME280;6172;42.646;23.344;2023-02-21T03:04:00;94830.94;;;2.69;100.00
12219;BME280;6172;42.646;23.344;2023-02-21T03:06:43;94826.22;;;2.63;100.00
12219;BME280;6172;42.646;23.344;2023-02-21T03:09:18;94823.16;;;2.64;100.00
12219;BME280;6172;42.646;23.344;2023-02-21T03:11:56;94835.59;;;2.72;100.00
12219;BME280;6172;42.646;23.344;2023-02-21T03:14:29;94829.69;;;2.63;100.00
12219;BME280;6172;42.646;23.344;2023-02-21T03:17:02;94836.44;;;2.76;100.00
12219;BME280;6172;42.646;23.344;2023-02-21T03:19:34;94821.72;;;2.70;100.00
12219;BME280;6172;42.646;23.344;2023-02-21T03:22:06;94827.06;;;2.93;100.00
12219;BME280;6172;42.646;23.344;2023-02-21T03:24:36;94825.94;;;2.94;100.00
12219;BME280;6172;42.646;23.344;2023-02-21T03:27:06;94832.31;;;2.82;100.00
12219;BME280;6172;42.646;23.344;2023-02-21T03:29:33;94814.41;;;2.93;100.00
12219;BME280;6172;42.646;23.344;2023-02-21T03:32:04;94816.66;;;2.91;100.00
12219;BME280;6172;42.646;23.344;2023-02-21T03:34:37;94806.84;;;3.02;100.00
12219;BME280;6172;42.646;23.344;2023-02-21T03:37:08;94802.91;;;2.96;100.00
12219;BME280;6172;42.646;23.344;2023-02-21T03:39:36;94797.69;;;3.07;100.00
12219;BME280;6172;42.646;23.344;2023-02-21T03:42:04;94776.09;;;3.03;100.00
12219;BME280;6172;42.646;23.344;2023-02-21T03:44:34;94788.72;;;2.73;100.00
12219;BME280;6172;42.646;23.344;2023-02-21T03:47:01;94803.03;;;2.55;100.00
12219;BME280;6172;42.646;23.344;2023-02-21T03:49:28;94810.78;;;2.60;100.00
12219;BME280;6172;42.646;23.344;2023-02-21T03:51:56;94809.81;;;2.71;100.00
12219;BME280;6172;42.646;23.344;2023-02-21T03:54:30;94828.66;;;2.71;100.00
12219;BME280;6172;42.646;23.344;2023-02-21T03:57:05;94819.34;;;2.65;100.00
12219;BME280;6172;42.646;23.344;2023-02-21T03:59:34;94817.78;;;2.87;100.00
12219;BME280;6172;42.646;23.344;2023-02-21T04:02:06;94805.78;;;2.84;100.00
12219;BME280;6172;42.646;23.344;2023-02-21T04:04:34;94806.91;;;2.57;100.00
12219;BME280;6172;42.646;23.344;2023-02-21T04:07:02;94826.72;;;2.27;100.00
12219;BME280;6172;42.646;23.344;2023-02-21T04:09:30;94814.53;;;2.10;100.00
12219;BME280;6172;42.646;23.344;2023-02-21T04:11:57;94823.88;;;2.16;100.00
12219;BME280;6172;42.646;23.344;2023-02-21T04:14:24;94830.88;;;2.21;100.00
12219;BME280;6172;42.646;23.344;2023-02-21T04:16:51;94832.47;;;2.25;100.00
12219;BME280;6172;42.646;23.344;2023-02-21T04:19:18;94839.06;;;2.50;100.00
12219;BME280;6172;42.646;23.344;2023-02-21T04:21:45;94850.38;;;2.59;100.00
12219;BME280;6172;42.646;23.344;2023-02-21T04:24:14;94840.63;;;2.51;100.00
12219;BME280;6172;42.646;23.344;2023-02-21T04:26:42;94852.81;;;2.45;100.00
12219;BME280;6172;42.646;23.344;2023-02-21T04:29:10;94843.72;;;2.53;100.00
12219;BME280;6172;42.646;23.344;2023-02-21T04:31:37;94866.88;;;2.58;100.00
12219;BME280;6172;42.646;23.344;2023-02-21T04:34:05;94849.66;;;2.62;100.00
12219;BME280;6172;42.646;23.344;2023-02-21T04:36:32;94858.78;;;2.80;100.00
12219;BME280;6172;42.646;23.344;2023-02-21T04:38:59;94867.19;;;2.75;100.00
12219;BME280;6172;42.646;23.344;2023-02-21T04:41:27;94858.63;;;2.92;100.00
12219;BME280;6172;42.646;23.344;2023-02-21T04:43:55;94864.47;;;2.98;100.00
12219;BME280;6172;42.646;23.344;2023-02-21T04:46:22;94864.41;;;2.94;100.00
12219;BME280;6172;42.646;23.344;2023-02-21T04:48:50;94859.00;;;2.94;100.00
12219;BME280;6172;42.646;23.344;2023-02-21T04:51:20;94861.34;;;2.96;100.00
12219;BME280;6172;42.646;23.344;2023-02-21T04:53:48;94853.53;;;2.87;100.00
12219;BME280;6172;42.646;23.344;2023-02-21T04:56:17;94847.88;;;2.96;100.00
12219;BME280;6172;42.646;23.344;2023-02-21T04:58:45;94844.47;;;2.99;100.00
12219;BME280;6172;42.646;23.344;2023-02-21T05:01:15;94838.84;;;3.07;100.00
12219;BME280;6172;42.646;23.344;2023-02-21T05:03:42;94834.78;;;3.20;100.00
12219;BME280;6172;42.646;23.344;2023-02-21T05:06:10;94826.69;;;3.17;100.00
12219;BME280;6172;42.646;23.344;2023-02-21T05:08:42;94817.75;;;3.13;100.00
12219;BME280;6172;42.646;23.344;2023-02-21T05:11:09;94800.31;;;3.03;100.00
12219;BME280;6172;42.646;23.344;2023-02-21T05:13:35;94820.06;;;3.11;100.00
12219;BME280;6172;42.646;23.344;2023-02-21T05:16:03;94812.69;;;3.08;100.00
12219;BME280;6172;42.646;23.344;2023-02-21T05:18:31;94810.66;;;3.01;100.00
12219;BME280;6172;42.646;23.344;2023-02-21T05:20:59;94815.84;;;2.87;100.00
12219;BME280;6172;42.646;23.344;2023-02-21T05:23:26;94794.28;;;2.84;100.00
12219;BME280;6172;42.646;23.344;2023-02-21T05:26:00;94802.06;;;2.66;100.00
12219;BME280;6172;42.646;23.344;2023-02-21T05:28:27;94806.16;;;2.83;100.00
12219;BME280;6172;42.646;23.344;2023-02-21T05:30:54;94808.66;;;2.95;100.00
12219;BME280;6172;42.646;23.344;2023-02-21T05:33:21;94815.53;;;2.92;100.00
12219;BME280;6172;42.646;23.344;2023-02-21T05:35:51;94812.75;;;2.85;100.00
12219;BME280;6172;42.646;23.344;2023-02-21T05:38:19;94819.03;;;2.70;100.00
12219;BME280;6172;42.646;23.344;2023-02-21T05:40:47;94816.53;;;2.81;100.00
12219;BME280;6172;42.646;23.344;2023-02-21T05:43:14;94825.00;;;2.60;100.00
12219;BME280;6172;42.646;23.344;2023-02-21T05:45:41;94827.28;;;2.36;100.00
12219;BME280;6172;42.646;23.344;2023-02-21T05:48:08;94823.88;;;2.39;100.00
12219;BME280;6172;42.646;23.344;2023-02-21T05:50:35;94825.13;;;2.22;100.00
12219;BME280;6172;42.646;23.344;2023-02-21T05:53:05;94846.78;;;2.52;100.00
12219;BME280;6172;42.646;23.344;2023-02-21T05:55:34;94839.75;;;2.44;100.00
12219;BME280;6172;42.646;23.344;2023-02-21T05:58:01;94843.69;;;2.72;100.00
12219;BME280;6172;42.646;23.344;2023-02-21T06:00:29;94851.78;;;2.76;100.00
12219;BME280;6172;42.646;23.344;2023-02-21T06:02:56;94839.41;;;2.94;100.00
12219;BME280;6172;42.646;23.344;2023-02-21T06:05:24;94856.19;;;3.10;100.00
12219;BME280;6172;42.646;23.344;2023-02-21T06:07:51;94835.03;;;3.08;100.00
12219;BME280;6172;42.646;23.344;2023-02-21T06:10:20;94849.97;;;3.32;100.00
12219;BME280;6172;42.646;23.344;2023-02-21T06:12:46;94856.25;;;3.40;100.00
12219;BME280;6172;42.646;23.344;2023-02-21T06:15:13;94863.00;;;3.56;100.00
12219;BME280;6172;42.646;23.344;2023-02-21T06:17:41;94846.09;;;3.59;100.00
12219;BME280;6172;42.646;23.344;2023-02-21T06:20:12;94870.84;;;3.65;100.00
12219;BME280;6172;42.646;23.344;2023-02-21T06:22:41;94847.53;;;3.79;100.00
12219;BME280;6172;42.646;23.344;2023-02-21T06:25:09;94856.75;;;4.08;100.00
12219;BME280;6172;42.646;23.344;2023-02-21T06:27:37;94857.75;;;4.26;100.00
12219;BME280;6172;42.646;23.344;2023-02-21T06:30:05;94858.53;;;4.66;100.00
12219;BME280;6172;42.646;23.344;2023-02-21T06:32:32;94851.78;;;5.40;94.95
12219;BME280;6172;42.646;23.344;2023-02-21T06:34:59;94846.19;;;6.80;80.72
12219;BME280;6172;42.646;23.344;2023-02-21T06:37:26;94849.16;;;8.84;68.36
12219;BME280;6172;42.646;23.344;2023-02-21T06:39:53;94856.41;;;10.30;57.09
12219;BME280;6172;42.646;23.344;2023-02-21T06:42:20;94848.47;;;10.69;52.34
12219;BME280;6172;42.646;23.344;2023-02-21T06:44:49;94856.81;;;11.84;48.80
12219;BME280;6172;42.646;23.344;2023-02-21T06:47:17;94850.53;;;11.87;46.11
12219;BME280;6172;42.646;23.344;2023-02-21T06:49:44;94848.50;;;12.53;44.88
12219;BME280;6172;42.646;23.344;2023-02-21T06:52:10;94850.81;;;12.91;43.91
12219;BME280;6172;42.646;23.344;2023-02-21T06:54:37;94844.38;;;13.33;42.35
12219;BME280;6172;42.646;23.344;2023-02-21T06:57:04;94837.69;;;13.50;41.25
12219;BME280;6172;42.646;23.344;2023-02-21T06:59:31;94839.00;;;13.13;41.79
12219;BME280;6172;42.646;23.344;2023-02-21T07:02:00;94848.72;;;12.00;43.82
12219;BME280;6172;42.646;23.344;2023-02-21T07:04:29;94835.50;;;12.93;42.68
12219;BME280;6172;42.646;23.344;2023-02-21T07:06:56;94833.59;;;10.77;46.28
12219;BME280;6172;42.646;23.344;2023-02-21T07:09:24;94844.28;;;11.18;46.44
12219;BME280;6172;42.646;23.344;2023-02-21T07:11:51;94845.59;;;12.21;44.79
12219;BME280;6172;42.646;23.344;2023-02-21T07:14:18;94841.47;;;11.71;44.08
12219;BME280;6172;42.646;23.344;2023-02-21T07:16:44;94849.78;;;10.58;46.72
12219;BME280;6172;42.646;23.344;2023-02-21T07:19:13;94844.34;;;10.27;47.49
12219;BME280;6172;42.646;23.344;2023-02-21T07:21:42;94838.25;;;10.16;47.87
12219;BME280;6172;42.646;23.344;2023-02-21T07:24:08;94855.41;;;10.13;48.78
12219;BME280;6172;42.646;23.344;2023-02-21T07:26:36;94833.69;;;10.40;48.70
12219;BME280;6172;42.646;23.344;2023-02-21T07:29:04;94831.44;;;10.31;48.55
12219;BME280;6172;42.646;23.344;2023-02-21T07:31:31;94839.75;;;10.21;48.48
12219;BME280;6172;42.646;23.344;2023-02-21T07:33:58;94837.31;;;9.96;48.98
12219;BME280;6172;42.646;23.344;2023-02-21T07:36:26;94832.78;;;10.50;48.21
12219;BME280;6172;42.646;23.344;2023-02-21T07:38:53;94829.94;;;9.97;48.92
12219;BME280;6172;42.646;23.344;2023-02-21T07:41:20;94820.81;;;10.10;49.26
12219;BME280;6172;42.646;23.344;2023-02-21T07:43:47;94816.72;;;9.95;49.57
12219;BME280;6172;42.646;23.344;2023-02-21T07:46:15;94825.41;;;10.17;48.61
12219;BME280;6172;42.646;23.344;2023-02-21T07:48:42;94827.06;;;10.41;48.46
12219;BME280;6172;42.646;23.344;2023-02-21T07:51:09;94814.22;;;10.42;48.31
12219;BME280;6172;42.646;23.344;2023-02-21T07:53:37;94818.91;;;9.70;49.53
12219;BME280;6172;42.646;23.344;2023-02-21T07:56:04;94828.00;;;8.55;51.90
12219;BME280;6172;42.646;23.344;2023-02-21T07:58:31;94809.31;;;9.15;51.82
12219;BME280;6172;42.646;23.344;2023-02-21T08:01:01;94804.50;;;9.70;51.25
12219;BME280;6172;42.646;23.344;2023-02-21T08:03:28;94814.28;;;8.72;52.92
12219;BME280;6172;42.646;23.344;2023-02-21T08:05:55;94819.28;;;8.81;52.87
12219;BME280;6172;42.646;23.344;2023-02-21T08:08:23;94822.78;;;8.02;55.14
12219;BME280;6172;42.646;23.344;2023-02-21T08:10:51;94810.22;;;8.43;55.31
12219;BME280;6172;42.646;23.344;2023-02-21T08:13:18;94817.78;;;8.73;54.57
12219;BME280;6172;42.646;23.344;2023-02-21T08:15:45;94808.38;;;8.12;55.75
12219;BME280;6172;42.646;23.344;2023-02-21T08:18:17;94813.19;;;8.59;55.41
12219;BME280;6172;42.646;23.344;2023-02-21T08:20:48;94813.72;;;8.98;53.77
12219;BME280;6172;42.646;23.344;2023-02-21T08:23:15;94803.63;;;9.43;52.31
12219;BME280;6172;42.646;23.344;2023-02-21T08:25:44;94815.97;;;9.07;53.52
12219;BME280;6172;42.646;23.344;2023-02-21T08:28:13;94811.44;;;9.41;52.86
12219;BME280;6172;42.646;23.344;2023-02-21T08:30:41;94804.47;;;8.89;53.56
12219;BME280;6172;42.646;23.344;2023-02-21T08:33:08;94795.06;;;9.44;52.50
12219;BME280;6172;42.646;23.344;2023-02-21T08:35:35;94793.38;;;9.17;52.38
12219;BME280;6172;42.646;23.344;2023-02-21T08:38:02;94788.69;;;9.21;52.45
12219;BME280;6172;42.646;23.344;2023-02-21T08:40:30;94784.09;;;9.11;53.72
12219;BME280;6172;42.646;23.344;2023-02-21T08:42:58;94782.47;;;9.20;52.90
12219;BME280;6172;42.646;23.344;2023-02-21T08:45:27;94787.94;;;9.94;51.55
12219;BME280;6172;42.646;23.344;2023-02-21T08:47:54;94786.19;;;10.11;51.13
12219;BME280;6172;42.646;23.344;2023-02-21T08:50:23;94789.31;;;10.09;51.27
12219;BME280;6172;42.646;23.344;2023-02-21T08:52:50;94788.22;;;10.33;50.26
12219;BME280;6172;42.646;23.344;2023-02-21T08:55:18;94791.72;;;10.64;49.48
12219;BME280;6172;42.646;23.344;2023-02-21T08:57:47;94790.53;;;10.35;50.13
12219;BME280;6172;42.646;23.344;2023-02-21T09:00:15;94780.69;;;10.71;49.05
12219;BME280;6172;42.646;23.344;2023-02-21T09:02:44;94789.91;;;10.81;48.70
12219;BME280;6172;42.646;23.344;2023-02-21T09:05:14;94786.25;;;11.14;47.67
12219;BME280;6172;42.646;23.344;2023-02-21T09:07:41;94781.56;;;10.65;48.40
12219;BME280;6172;42.646;23.344;2023-02-21T09:10:09;94775.56;;;10.50;49.20
12219;BME280;6172;42.646;23.344;2023-02-21T09:12:37;94779.38;;;11.06;48.22
12219;BME280;6172;42.646;23.344;2023-02-21T09:15:05;94786.78;;;11.28;47.38
12219;BME280;6172;42.646;23.344;2023-02-21T09:17:32;94776.91;;;11.61;46.48
12219;BME280;6172;42.646;23.344;2023-02-21T09:20:01;94776.13;;;11.60;46.46
12219;BME280;6172;42.646;23.344;2023-02-21T09:22:31;94773.28;;;11.67;46.09
12219;BME280;6172;42.646;23.344;2023-02-21T09:24:58;94761.72;;;12.18;44.79
12219;BME280;6172;42.646;23.344;2023-02-21T09:27:25;94755.13;;;12.35;44.18
12219;BME280;6172;42.646;23.344;2023-02-21T09:30:03;94754.94;;;11.87;44.63
12219;BME280;6172;42.646;23.344;2023-02-21T09:32:31;94759.19;;;11.03;46.81
12219;BME280;6172;42.646;23.344;2023-02-21T09:35:01;94751.50;;;11.83;45.34
12219;BME280;6172;42.646;23.344;2023-02-21T09:37:29;94750.94;;;12.11;44.29
12219;BME280;6172;42.646;23.344;2023-02-21T09:39:56;94750.88;;;12.50;43.94
12219;BME280;6172;42.646;23.344;2023-02-21T09:42:28;94748.16;;;12.70;43.14
12219;BME280;6172;42.646;23.344;2023-02-21T09:44:55;94740.53;;;12.94;42.69
12219;BME280;6172;42.646;23.344;2023-02-21T09:47:27;94733.28;;;13.64;41.24
12219;BME280;6172;42.646;23.344;2023-02-21T09:49:58;94734.41;;;14.36;39.83
12219;BME280;6172;42.646;23.344;2023-02-21T09:52:31;94723.72;;;14.79;38.63
12219;BME280;6172;42.646;23.344;2023-02-21T09:55:02;94710.78;;;14.79;38.18
12219;BME280;6172;42.646;23.344;2023-02-21T09:57:33;94706.91;;;15.02;38.15
12219;BME280;6172;42.646;23.344;2023-02-21T10:00:01;94731.72;;;14.98;38.05
12219;BME280;6172;42.646;23.344;2023-02-21T10:02:41;94707.06;;;15.33;37.56
12219;BME280;6172;42.646;23.344;2023-02-21T10:05:17;94709.84;;;15.54;36.92
12219;BME280;6172;42.646;23.344;2023-02-21T10:07:57;94705.31;;;15.73;36.46
12219;BME280;6172;42.646;23.344;2023-02-21T10:10:29;94696.28;;;15.72;36.32
12219;BME280;6172;42.646;23.344;2023-02-21T10:13:05;94689.28;;;15.93;36.36
12219;BME280;6172;42.646;23.344;2023-02-21T10:15:43;94686.91;;;15.82;36.17
12219;BME280;6172;42.646;23.344;2023-02-21T10:18:21;94688.47;;;16.35;35.32
12219;BME280;6172;42.646;23.344;2023-02-21T10:20:53;94679.38;;;15.95;35.41
12219;BME280;6172;42.646;23.344;2023-02-21T10:23:28;94672.28;;;15.85;35.15
12219;BME280;6172;42.646;23.344;2023-02-21T10:26:00;94674.69;;;16.26;34.16
12219;BME280;6172;42.646;23.344;2023-02-21T10:28:30;94669.09;;;16.69;33.35
12219;BME280;6172;42.646;23.344;2023-02-21T10:31:05;94660.47;;;16.98;32.75
12219;BME280;6172;42.646;23.344;2023-02-21T10:33:36;94656.56;;;17.35;31.96
12219;BME280;6172;42.646;23.344;2023-02-21T10:36:10;94645.66;;;17.13;31.95
12219;BME280;6172;42.646;23.344;2023-02-21T10:38:40;94645.16;;;16.97;32.11
12219;BME280;6172;42.646;23.344;2023-02-21T10:41:09;94638.28;;;17.01;32.17
12219;BME280;6172;42.646;23.344;2023-02-21T10:43:39;94631.91;;;17.31;31.83
12219;BME280;6172;42.646;23.344;2023-02-21T10:46:12;94637.41;;;17.13;31.99
12219;BME280;6172;42.646;23.344;2023-02-21T10:48:42;94628.53;;;17.09;32.15
12219;BME280;6172;42.646;23.344;2023-02-21T10:51:11;94627.78;;;17.27;31.94
12219;BME280;6172;42.646;23.344;2023-02-21T10:53:41;94626.09;;;17.84;30.24
12219;BME280;6172;42.646;23.344;2023-02-21T10:56:26;94615.72;;;18.47;29.23
12219;BME280;6172;42.646;23.344;2023-02-21T10:58:56;94604.94;;;18.91;26.54
12219;BME280;6172;42.646;23.344;2023-02-21T11:01:37;94599.50;;;19.20;25.10
12219;BME280;6172;42.646;23.344;2023-02-21T11:04:23;94588.56;;;19.49;24.16
12219;BME280;6172;42.646;23.344;2023-02-21T11:06:55;94588.06;;;19.74;23.59
12219;BME280;6172;42.646;23.344;2023-02-21T11:09:40;94589.63;;;20.04;23.31
12219;BME280;6172;42.646;23.344;2023-02-21T11:12:18;94571.88;;;20.25;22.84
12219;BME280;6172;42.646;23.344;2023-02-21T11:15:14;94573.50;;;20.17;23.46
12219;BME280;6172;42.646;23.344;2023-02-21T11:17:42;94558.09;;;20.45;22.73
12219;BME280;6172;42.646;23.344;2023-02-21T11:20:16;94562.91;;;20.30;22.62
12219;BME280;6172;42.646;23.344;2023-02-21T11:22:45;94558.81;;;20.11;22.80
12219;BME280;6172;42.646;23.344;2023-02-21T11:25:21;94554.84;;;20.47;22.58
12219;BME280;6172;42.646;23.344;2023-02-21T11:28:04;94547.50;;;20.78;22.30
12219;BME280;6172;42.646;23.344;2023-02-21T11:30:32;94543.59;;;20.85;22.39
12219;BME280;6172;42.646;23.344;2023-02-21T11:33:01;94545.13;;;20.37;22.61
12219;BME280;6172;42.646;23.344;2023-02-21T11:35:32;94546.38;;;20.70;22.57
12219;BME280;6172;42.646;23.344;2023-02-21T11:38:02;94534.63;;;20.26;22.45
12219;BME280;6172;42.646;23.344;2023-02-21T11:40:40;94536.56;;;20.35;22.80
12219;BME280;6172;42.646;23.344;2023-02-21T11:43:23;94517.53;;;20.42;22.67
12219;BME280;6172;42.646;23.344;2023-02-21T11:46:17;94527.22;;;20.52;22.66
12219;BME280;6172;42.646;23.344;2023-02-21T11:48:55;94521.72;;;20.72;22.43
12219;BME280;6172;42.646;23.344;2023-02-21T11:51:38;94510.84;;;20.83;22.37
12219;BME280;6172;42.646;23.344;2023-02-21T11:54:07;94504.81;;;20.50;22.80
12219;BME280;6172;42.646;23.344;2023-02-21T11:56:43;94501.53;;;20.66;22.57
12219;BME280;6172;42.646;23.344;2023-02-21T11:59:24;94498.91;;;20.43;22.96
12219;BME280;6172;42.646;23.344;2023-02-21T12:02:11;94494.06;;;20.58;22.70
12219;BME280;6172;42.646;23.344;2023-02-21T12:04:50;94493.97;;;20.32;22.73
12219;BME280;6172;42.646;23.344;2023-02-21T12:07:28;94480.50;;;20.40;22.90
12219;BME280;6172;42.646;23.344;2023-02-21T12:10:08;94483.53;;;20.07;23.32
12219;BME280;6172;42.646;23.344;2023-02-21T12:12:47;94488.47;;;20.18;23.33
12219;BME280;6172;42.646;23.344;2023-02-21T12:15:21;94481.59;;;19.26;24.33
12219;BME280;6172;42.646;23.344;2023-02-21T12:18:07;94477.66;;;19.18;24.23
12219;BME280;6172;42.646;23.344;2023-02-21T12:21:08;94467.06;;;19.02;24.78
12219;BME280;6172;42.646;23.344;2023-02-21T12:23:46;94466.94;;;18.96;24.35
12219;BME280;6172;42.646;23.344;2023-02-21T12:26:27;94452.78;;;19.03;24.60
12219;BME280;6172;42.646;23.344;2023-02-21T12:29:11;94454.78;;;18.65;24.92
12219;BME280;6172;42.646;23.344;2023-02-21T12:31:55;94454.25;;;18.52;25.41
12219;BME280;6172;42.646;23.344;2023-02-21T12:34:40;94461.66;;;18.37;25.37
12219;BME280;6172;42.646;23.344;2023-02-21T12:37:24;94451.28;;;17.99;25.67
12219;BME280;6172;42.646;23.344;2023-02-21T12:40:08;94443.06;;;17.90;26.38
12219;BME280;6172;42.646;23.344;2023-02-21T12:43:01;94449.94;;;17.95;26.08
12219;BME280;6172;42.646;23.344;2023-02-21T12:45:54;94444.22;;;18.07;25.97
12219;BME280;6172;42.646;23.344;2023-02-21T12:48:28;94438.69;;;18.31;26.06
12219;BME280;6172;42.646;23.344;2023-02-21T12:51:00;94442.81;;;18.35;25.80
12219;BME280;6172;42.646;23.344;2023-02-21T12:53:33;94433.06;;;18.58;25.75
12219;BME280;6172;42.646;23.344;2023-02-21T12:56:04;94435.66;;;18.76;25.77
12219;BME280;6172;42.646;23.344;2023-02-21T12:58:34;94435.88;;;18.87;25.38
12219;BME280;6172;42.646;23.344;2023-02-21T13:01:14;94448.59;;;18.70;25.57
12219;BME280;6172;42.646;23.344;2023-02-21T13:03:53;94445.03;;;18.55;25.52
12219;BME280;6172;42.646;23.344;2023-02-21T13:06:25;94440.50;;;18.66;25.04
12219;BME280;6172;42.646;23.344;2023-02-21T13:09:01;94435.25;;;18.68;25.02
12219;BME280;6172;42.646;23.344;2023-02-21T13:11:35;94436.63;;;18.49;25.61
12219;BME280;6172;42.646;23.344;2023-02-21T13:14:08;94429.31;;;18.61;25.34
12219;BME280;6172;42.646;23.344;2023-02-21T13:16:37;94415.56;;;18.28;25.42
12219;BME280;6172;42.646;23.344;2023-02-21T13:19:06;94418.25;;;18.46;24.73
12219;BME280;6172;42.646;23.344;2023-02-21T13:21:47;94418.22;;;18.23;25.21
12219;BME280;6172;42.646;23.344;2023-02-21T13:24:25;94417.91;;;17.97;25.93
12219;BME280;6172;42.646;23.344;2023-02-21T13:27:18;94420.50;;;18.24;26.10
12219;BME280;6172;42.646;23.344;2023-02-21T13:29:47;94408.19;;;18.34;26.20
12219;BME280;6172;42.646;23.344;2023-02-21T13:32:19;94410.97;;;18.58;25.47
12219;BME280;6172;42.646;23.344;2023-02-21T13:34:47;94399.56;;;18.65;26.86
12219;BME280;6172;42.646;23.344;2023-02-21T13:37:22;94404.16;;;18.68;26.04
12219;BME280;6172;42.646;23.344;2023-02-21T13:39:52;94402.06;;;18.77;26.77
12219;BME280;6172;42.646;23.344;2023-02-21T13:42:25;94400.91;;;18.84;25.34
12219;BME280;6172;42.646;23.344;2023-02-21T13:45:14;94395.16;;;18.58;26.42